Watertown, WI

3:26 PM CDT on September 30, 2016 (GMT -0500)
APRSWXNET | | Change Station

Elev 853 ft 43.23 °N, 88.73 °W | Updated 23 minutes ago

Overcast
Overcast
62 °F
Feels Like 62 °F
N
2
Wind Variable Wind from ENE
Gusts 7.0 mph

Today
High -- | Low -- °F
--% Chance of Precip.
Yesterday
High -- | Low -- °F
Precip. -- in
Pressure 30.16 in
Visibility 10.0 miles
Clouds Overcast 1300 ft
Dew Point 53 °F
Humidity 72%
Rainfall in
Snow Depth Not available.
6:51 AM 6:36 PM
Waning Crescent, 0% visible
METAR KRYV 302015Z AUTO 04007KT 10SM OVC013 16/16 A3016 RMK AO2 T01580155
Pressure 30.16 in
Visibility 10.0 miles
Clouds Overcast 1300 ft
Dew Point 53 °F
Humidity 72%
Rainfall in
Snow Depth Not available.
6:51 AM 6:36 PM
Waning Crescent, 0% visible
METAR KRYV 302015Z AUTO 04007KT 10SM OVC013 16/16 A3016 RMK AO2 T01580155

10-Day Weather Forecast

Almanac

Astronomy

Sep. 30, 2016 Rise Set
Actual Time
Civil Twilight
Nautical Twilight
Astronomical Twilight
Moon
Length of Visible Light
Length of Day
Tomorrow will be .
, % of the Moon is Illuminated

Today's Extremes

State Highs State Lows

Community

WunderPhotos

Upload Photos

1,942,764 photos uploaded!

WunderBlog® & News

Nearby

Air Quality

  Air Quality AQ Index Pollutant
Not available.

Snow Depth

Station Depth Elevation

Earthquake Activity

City Distance Mag. Time & Date
Minimum magnitude displayed is 2.5.

Coastal Water Temperatures

Place Temperature

Stations

Nearby Weather Stations

Station Location Temp. Windchill Dew Point Humidity Wind Precip. Elev Updated Type
                   

Watches & Warnings

There are currently no watches in effect.